Hanover, Indiana
Current Conditions -  °F | °C
As of 10:13 AM on Thursday 18 Dec 2014 (Local Time) from KIMS Reporting Station
Overcast Overcast  
Wind Chill: 23°   Ceiling: 1700
Heat Index: 28°   Visibility: 10mi
Dew Point: 23°   Wind: 5mph
Humidity: 80%   Direction: 20°NNE
Pressure: 30.29"   Gusts: NA
Location:  38.71°N, 85.47°W
Report Text: KIMS 181513Z AUTO 02004KT 10SM OVC017 M02/M05 A3029 RMK AO1
Loading
Personal Weather Stations






























Interactive Weather Map New forecast layout! Learn more

10-Day Weather Forecast

Advertisements
Track Severe Weather on mobile